KAL2792 RKSI-RJBB
Flight info
| Callsign | KAL2792 |
|---|---|
| Flight time | 1h 15m |
| Altitude | 31000 |
| Route | EGOBA2H EGOBA DCT LANAT Y597 MIHOU SAEKI Y36 ATMUG |
| Aircraft | B77W/H-SDE1E2E3FGHIJ2J3J4J5M1RWXY/LB1D1 |
Departure
| Time | 2026-05-05 06:13 |
|---|---|
| Airport | Incheon International Airport (RKSI) |
Arrival
| Time | 2026-05-05 07:28 |
|---|---|
| Airport | Kansai International Airport (RJBB) |
| Time | Latitude | Longitude | Altitude | Speed | Heading |
|---|---|---|---|---|---|
| 2026-05-05 05:22 | 37.45392 | 126.43996 | 37 ft | 0 kts | 112° |
| 2026-05-05 05:48 | 37.45395 | 126.43986 | 35 ft | 0 kts | 112° |
| 2026-05-05 05:49 | 37.45407 | 126.43949 | 35 ft | 7 kts | 115° |
| 2026-05-05 05:49 | 37.45422 | 126.43923 | 35 ft | 3 kts | 149° |
| 2026-05-05 05:49 | 37.45440 | 126.43914 | 35 ft | 5 kts | 166° |
| 2026-05-05 05:49 | 37.45461 | 126.43914 | 36 ft | 3 kts | 226° |
| 2026-05-05 05:50 | 37.45468 | 126.43926 | 36 ft | 4 kts | 240° |
| 2026-05-05 05:50 | 37.45478 | 126.43949 | 34 ft | 2 kts | 240° |
| 2026-05-05 05:50 | 37.45485 | 126.43962 | 35 ft | 2 kts | 238° |
| 2026-05-05 05:50 | 37.45487 | 126.43968 | 35 ft | 0 kts | 237° |
| 2026-05-05 05:55 | 37.45484 | 126.43962 | 35 ft | 3 kts | 237° |
| 2026-05-05 05:55 | 37.45462 | 126.43918 | 36 ft | 9 kts | 237° |
| 2026-05-05 05:55 | 37.45446 | 126.43887 | 37 ft | 0 kts | 237° |
| 2026-05-05 06:02 | 37.45443 | 126.43883 | 37 ft | 4 kts | 233° |
| 2026-05-05 06:03 | 37.45383 | 126.43792 | 37 ft | 19 kts | 231° |
| 2026-05-05 06:03 | 37.45390 | 126.43641 | 37 ft | 19 kts | 316° |
| 2026-05-05 06:03 | 37.45505 | 126.43557 | 36 ft | 19 kts | 325° |
| 2026-05-05 06:03 | 37.45615 | 126.43461 | 37 ft | 19 kts | 324° |
| 2026-05-05 06:04 | 37.45723 | 126.43364 | 37 ft | 19 kts | 324° |
| 2026-05-05 06:04 | 37.45832 | 126.43267 | 37 ft | 19 kts | 324° |
| 2026-05-05 06:04 | 37.45942 | 126.43170 | 37 ft | 19 kts | 324° |
| 2026-05-05 06:04 | 37.46050 | 126.43074 | 37 ft | 19 kts | 324° |
| 2026-05-05 06:05 | 37.46159 | 126.42977 | 37 ft | 19 kts | 324° |
| 2026-05-05 06:05 | 37.46268 | 126.42880 | 37 ft | 19 kts | 325° |
| 2026-05-05 06:05 | 37.46376 | 126.42784 | 37 ft | 19 kts | 323° |
| 2026-05-05 06:05 | 37.46484 | 126.42687 | 37 ft | 19 kts | 325° |
| 2026-05-05 06:06 | 37.46593 | 126.42590 | 38 ft | 19 kts | 325° |
| 2026-05-05 06:06 | 37.46702 | 126.42493 | 38 ft | 19 kts | 324° |
| 2026-05-05 06:06 | 37.46810 | 126.42396 | 38 ft | 19 kts | 324° |
| 2026-05-05 06:06 | 37.46918 | 126.42298 | 38 ft | 19 kts | 324° |
| 2026-05-05 06:07 | 37.47027 | 126.42202 | 38 ft | 19 kts | 324° |
| 2026-05-05 06:07 | 37.47080 | 126.42155 | 38 ft | 0 kts | 324° |
| 2026-05-05 06:08 | 37.47097 | 126.42140 | 38 ft | 12 kts | 324° |
| 2026-05-05 06:08 | 37.47221 | 126.42029 | 38 ft | 32 kts | 324° |
| 2026-05-05 06:08 | 37.47449 | 126.41826 | 38 ft | 48 kts | 324° |
| 2026-05-05 06:08 | 37.47533 | 126.41751 | 38 ft | 0 kts | 324° |
| 2026-05-05 06:09 | 37.47551 | 126.41744 | 38 ft | 12 kts | 347° |
| 2026-05-05 06:09 | 37.47586 | 126.41745 | 38 ft | 0 kts | 19° |
| 2026-05-05 06:09 | 37.47588 | 126.41748 | 38 ft | 4 kts | 32° |
| 2026-05-05 06:09 | 37.47647 | 126.41846 | 38 ft | 21 kts | 54° |
| 2026-05-05 06:10 | 37.47617 | 126.42002 | 38 ft | 21 kts | 141° |
| 2026-05-05 06:10 | 37.47488 | 126.41983 | 38 ft | 21 kts | 230° |
| 2026-05-05 06:10 | 37.47414 | 126.41828 | 38 ft | 21 kts | 235° |
| 2026-05-05 06:10 | 37.47331 | 126.41680 | 38 ft | 21 kts | 234° |
| 2026-05-05 06:11 | 37.47214 | 126.41620 | 38 ft | 21 kts | 149° |
| 2026-05-05 06:11 | 37.47104 | 126.41715 | 38 ft | 0 kts | 145° |
| 2026-05-05 06:11 | 37.47093 | 126.41725 | 38 ft | 0 kts | 144° |
| 2026-05-05 06:12 | 37.47090 | 126.41728 | 38 ft | 10 kts | 144° |
| 2026-05-05 06:12 | 37.46823 | 126.41966 | 38 ft | 83 kts | 144° |
| 2026-05-05 06:12 | 37.46176 | 126.42544 | 37 ft | 143 kts | 144° |
| 2026-05-05 06:13 | 37.45226 | 126.43387 | 40 ft | 190 kts | 145° |
| 2026-05-05 06:13 | 37.44056 | 126.44393 | 253 ft | 209 kts | 146° |
| 2026-05-05 06:13 | 37.42820 | 126.45449 | 699 ft | 216 kts | 148° |
| 2026-05-05 06:13 | 37.41549 | 126.46376 | 1469 ft | 211 kts | 151° |
| 2026-05-05 06:14 | 37.40244 | 126.47294 | 1862 ft | 223 kts | 151° |
| 2026-05-05 06:14 | 37.38933 | 126.48232 | 2058 ft | 239 kts | 151° |
| 2026-05-05 06:14 | 37.37447 | 126.49289 | 2326 ft | 248 kts | 151° |
| 2026-05-05 06:14 | 37.35941 | 126.50361 | 2516 ft | 249 kts | 151° |
| 2026-05-05 06:15 | 37.34428 | 126.51435 | 2724 ft | 251 kts | 151° |
| 2026-05-05 06:15 | 37.32907 | 126.52514 | 2923 ft | 251 kts | 151° |
| 2026-05-05 06:15 | 37.31384 | 126.53595 | 3123 ft | 252 kts | 151° |
| 2026-05-05 06:15 | 37.29855 | 126.54678 | 3328 ft | 253 kts | 151° |
| 2026-05-05 06:16 | 37.28324 | 126.55764 | 3528 ft | 253 kts | 151° |
| 2026-05-05 06:16 | 37.26789 | 126.56855 | 3733 ft | 254 kts | 151° |
| 2026-05-05 06:16 | 37.25249 | 126.57944 | 3947 ft | 255 kts | 151° |
| 2026-05-05 06:16 | 37.23702 | 126.59044 | 4150 ft | 256 kts | 151° |
| 2026-05-05 06:17 | 37.22148 | 126.60146 | 4347 ft | 257 kts | 151° |
| 2026-05-05 06:17 | 37.20584 | 126.61252 | 4554 ft | 258 kts | 151° |
| 2026-05-05 06:17 | 37.19016 | 126.62358 | 4744 ft | 258 kts | 151° |
| 2026-05-05 06:17 | 37.17455 | 126.63458 | 4939 ft | 258 kts | 151° |
| 2026-05-05 06:18 | 37.15893 | 126.64559 | 5139 ft | 258 kts | 151° |
| 2026-05-05 06:18 | 37.14329 | 126.65662 | 5341 ft | 258 kts | 151° |
| 2026-05-05 06:18 | 37.12766 | 126.66765 | 5540 ft | 258 kts | 151° |
| 2026-05-05 06:18 | 37.11194 | 126.67875 | 5718 ft | 260 kts | 151° |
| 2026-05-05 06:19 | 37.09599 | 126.69000 | 5825 ft | 265 kts | 151° |
| 2026-05-05 06:19 | 37.08011 | 126.70101 | 5980 ft | 267 kts | 156° |
| 2026-05-05 06:19 | 37.06155 | 126.70515 | 5954 ft | 280 kts | 189° |
| 2026-05-05 06:19 | 37.04381 | 126.69561 | 5924 ft | 281 kts | 223° |
| 2026-05-05 06:20 | 37.03323 | 126.67546 | 5936 ft | 281 kts | 256° |
| 2026-05-05 06:20 | 37.03315 | 126.65136 | 5938 ft | 281 kts | 289° |
| 2026-05-05 06:20 | 37.04361 | 126.63099 | 5932 ft | 283 kts | 321° |
| 2026-05-05 06:20 | 37.06131 | 126.62088 | 5935 ft | 284 kts | 354° |
| 2026-05-05 06:21 | 37.08068 | 126.62431 | 5930 ft | 286 kts | 26° |
| 2026-05-05 06:21 | 37.09560 | 126.64023 | 5927 ft | 287 kts | 59° |
| 2026-05-05 06:21 | 37.10145 | 126.66380 | 5930 ft | 287 kts | 91° |
| 2026-05-05 06:21 | 37.09681 | 126.68774 | 5935 ft | 285 kts | 115° |
| 2026-05-05 06:22 | 37.08740 | 126.70973 | 5936 ft | 288 kts | 121° |
| 2026-05-05 06:22 | 37.07847 | 126.73194 | 5908 ft | 285 kts | 102° |
| 2026-05-05 06:22 | 37.07901 | 126.75629 | 5931 ft | 282 kts | 69° |
| 2026-05-05 06:22 | 37.08999 | 126.77569 | 6075 ft | 270 kts | 35° |
| 2026-05-05 06:23 | 37.10607 | 126.78839 | 6099 ft | 284 kts | 31° |
| 2026-05-05 06:23 | 37.12262 | 126.80245 | 6028 ft | 289 kts | 37° |
| 2026-05-05 06:23 | 37.13830 | 126.81848 | 5976 ft | 292 kts | 41° |
| 2026-05-05 06:23 | 37.15298 | 126.83593 | 5937 ft | 290 kts | 45° |
| 2026-05-05 06:24 | 37.16677 | 126.85428 | 6179 ft | 289 kts | 48° |
| 2026-05-05 06:24 | 37.18011 | 126.87343 | 6858 ft | 294 kts | 49° |
| 2026-05-05 06:24 | 37.19321 | 126.89316 | 7673 ft | 295 kts | 50° |
| 2026-05-05 06:24 | 37.20615 | 126.91332 | 8422 ft | 299 kts | 51° |
| 2026-05-05 06:25 | 37.21910 | 126.93396 | 9138 ft | 303 kts | 52° |
| 2026-05-05 06:25 | 37.23205 | 126.95494 | 9852 ft | 305 kts | 52° |
| 2026-05-05 06:25 | 37.24493 | 126.97597 | 10468 ft | 313 kts | 52° |
| 2026-05-05 06:25 | 37.25861 | 126.99844 | 10643 ft | 336 kts | 52° |
| 2026-05-05 06:26 | 37.27325 | 127.02258 | 10837 ft | 358 kts | 52° |
| 2026-05-05 06:26 | 37.28861 | 127.04801 | 11253 ft | 372 kts | 52° |
| 2026-05-05 06:26 | 37.30440 | 127.07419 | 11857 ft | 380 kts | 52° |
| 2026-05-05 06:26 | 37.32045 | 127.10085 | 12576 ft | 384 kts | 53° |
| 2026-05-05 06:27 | 37.33663 | 127.12774 | 13359 ft | 387 kts | 53° |
| 2026-05-05 06:27 | 37.36943 | 127.18231 | 14757 ft | 396 kts | 53° |
| 2026-05-05 06:27 | 37.38610 | 127.21009 | 15436 ft | 400 kts | 53° |
| 2026-05-05 06:28 | 37.40289 | 127.23809 | 16139 ft | 403 kts | 53° |
| 2026-05-05 06:28 | 37.41982 | 127.26634 | 16810 ft | 406 kts | 53° |
| 2026-05-05 06:28 | 37.43693 | 127.29491 | 17428 ft | 411 kts | 53° |
| 2026-05-05 06:28 | 37.45420 | 127.32378 | 18060 ft | 415 kts | 53° |
| 2026-05-05 06:29 | 37.47024 | 127.35388 | 18532 ft | 417 kts | 65° |
| 2026-05-05 06:29 | 37.47782 | 127.38914 | 19007 ft | 422 kts | 85° |
| 2026-05-05 06:29 | 37.47632 | 127.42609 | 19593 ft | 425 kts | 102° |
| 2026-05-05 06:29 | 37.46806 | 127.46174 | 20065 ft | 428 kts | 108° |
| 2026-05-05 06:30 | 37.45868 | 127.49757 | 20551 ft | 433 kts | 108° |
| 2026-05-05 06:30 | 37.44905 | 127.53360 | 21135 ft | 435 kts | 109° |
| 2026-05-05 06:30 | 37.43939 | 127.56976 | 21717 ft | 437 kts | 108° |
| 2026-05-05 06:30 | 37.42975 | 127.60617 | 22211 ft | 441 kts | 108° |
| 2026-05-05 06:31 | 37.42009 | 127.64300 | 22717 ft | 445 kts | 108° |
| 2026-05-05 06:31 | 37.41043 | 127.68014 | 23157 ft | 449 kts | 108° |
| 2026-05-05 06:31 | 37.40072 | 127.71764 | 23643 ft | 452 kts | 108° |
| 2026-05-05 06:31 | 37.39097 | 127.75535 | 24126 ft | 455 kts | 108° |
| 2026-05-05 06:32 | 37.38115 | 127.79333 | 24573 ft | 458 kts | 108° |
| 2026-05-05 06:32 | 37.37130 | 127.83143 | 25017 ft | 461 kts | 108° |
| 2026-05-05 06:32 | 37.36135 | 127.86988 | 25442 ft | 464 kts | 108° |
| 2026-05-05 06:32 | 37.35132 | 127.90856 | 25845 ft | 467 kts | 108° |
| 2026-05-05 06:33 | 37.34122 | 127.94745 | 26197 ft | 471 kts | 108° |
| 2026-05-05 06:33 | 37.33101 | 127.98669 | 26508 ft | 475 kts | 108° |
| 2026-05-05 06:33 | 37.32080 | 128.02583 | 26770 ft | 480 kts | 108° |
| 2026-05-05 06:33 | 37.31031 | 128.06601 | 26916 ft | 488 kts | 108° |
| 2026-05-05 06:34 | 37.29967 | 128.10670 | 27179 ft | 492 kts | 108° |
| 2026-05-05 06:34 | 37.28896 | 128.14757 | 27509 ft | 494 kts | 108° |
| 2026-05-05 06:34 | 37.27818 | 128.18867 | 27760 ft | 497 kts | 108° |
| 2026-05-05 06:34 | 37.26731 | 128.23004 | 28023 ft | 500 kts | 108° |
| 2026-05-05 06:35 | 37.25640 | 128.27149 | 28284 ft | 502 kts | 108° |
| 2026-05-05 06:35 | 37.24541 | 128.31318 | 28520 ft | 504 kts | 108° |
| 2026-05-05 06:35 | 37.23438 | 128.35495 | 28763 ft | 505 kts | 108° |
| 2026-05-05 06:35 | 37.22326 | 128.39698 | 28913 ft | 509 kts | 108° |
| 2026-05-05 06:36 | 37.21206 | 128.43927 | 28974 ft | 512 kts | 108° |
| 2026-05-05 06:36 | 37.18958 | 128.52391 | 28991 ft | 510 kts | 108° |
| 2026-05-05 06:37 | 37.16717 | 128.60804 | 28995 ft | 508 kts | 108° |
| 2026-05-05 06:37 | 37.14472 | 128.69202 | 29049 ft | 510 kts | 109° |
| 2026-05-05 06:38 | 37.12203 | 128.77663 | 29037 ft | 514 kts | 109° |
| 2026-05-05 06:38 | 37.09915 | 128.86167 | 29027 ft | 515 kts | 109° |
| 2026-05-05 06:39 | 37.08011 | 128.93223 | 29020 ft | 515 kts | 110° |
| 2026-05-05 06:39 | 37.05711 | 129.01718 | 29020 ft | 515 kts | 110° |
| 2026-05-05 06:40 | 37.03409 | 129.10201 | 29021 ft | 515 kts | 110° |
| 2026-05-05 06:40 | 37.01099 | 129.18679 | 29017 ft | 515 kts | 110° |
| 2026-05-05 06:41 | 36.98781 | 129.27158 | 29017 ft | 516 kts | 110° |
| 2026-05-05 06:41 | 36.96452 | 129.35652 | 29017 ft | 517 kts | 110° |
| 2026-05-05 06:42 | 36.94115 | 129.44148 | 29026 ft | 517 kts | 110° |
| 2026-05-05 06:42 | 36.91772 | 129.52642 | 29011 ft | 517 kts | 110° |
| 2026-05-05 06:43 | 36.89419 | 129.61141 | 29034 ft | 518 kts | 110° |
| 2026-05-05 06:43 | 36.87060 | 129.69637 | 29035 ft | 518 kts | 111° |
| 2026-05-05 06:44 | 36.84708 | 129.78080 | 29037 ft | 519 kts | 111° |
| 2026-05-05 06:44 | 36.82330 | 129.86591 | 29038 ft | 520 kts | 111° |
| 2026-05-05 06:45 | 36.79939 | 129.95118 | 29041 ft | 521 kts | 111° |
| 2026-05-05 06:45 | 36.77542 | 130.03640 | 29045 ft | 521 kts | 111° |
| 2026-05-05 06:46 | 36.75132 | 130.12182 | 29052 ft | 522 kts | 111° |
| 2026-05-05 06:46 | 36.72715 | 130.20723 | 29059 ft | 523 kts | 111° |
| 2026-05-05 06:47 | 36.70288 | 130.29270 | 29062 ft | 523 kts | 111° |
| 2026-05-05 06:47 | 36.67853 | 130.37822 | 29063 ft | 524 kts | 111° |
| 2026-05-05 06:48 | 36.65407 | 130.46384 | 29069 ft | 525 kts | 112° |
| 2026-05-05 06:48 | 36.62952 | 130.54947 | 29072 ft | 525 kts | 112° |
| 2026-05-05 06:49 | 36.60491 | 130.63509 | 29076 ft | 526 kts | 112° |
| 2026-05-05 06:49 | 36.58019 | 130.72081 | 29085 ft | 527 kts | 112° |
| 2026-05-05 06:50 | 36.55538 | 130.80657 | 29081 ft | 527 kts | 112° |
| 2026-05-05 06:50 | 36.53048 | 130.89239 | 29090 ft | 528 kts | 112° |
| 2026-05-05 06:51 | 36.50820 | 130.96892 | 29086 ft | 528 kts | 112° |
| 2026-05-05 06:51 | 36.48337 | 131.05401 | 29089 ft | 528 kts | 112° |
| 2026-05-05 06:52 | 36.45824 | 131.13984 | 29092 ft | 529 kts | 112° |
| 2026-05-05 06:52 | 36.43303 | 131.22567 | 29093 ft | 529 kts | 112° |
| 2026-05-05 06:53 | 36.40773 | 131.31161 | 29099 ft | 530 kts | 112° |
| 2026-05-05 06:53 | 36.38227 | 131.39743 | 29102 ft | 530 kts | 114° |
| 2026-05-05 06:54 | 36.34994 | 131.47834 | 29102 ft | 525 kts | 125° |
| 2026-05-05 06:54 | 36.31103 | 131.55489 | 29112 ft | 525 kts | 126° |
| 2026-05-05 06:55 | 36.27225 | 131.63172 | 29110 ft | 526 kts | 125° |
| 2026-05-05 06:55 | 36.23373 | 131.70901 | 29109 ft | 527 kts | 125° |
| 2026-05-05 06:56 | 36.19528 | 131.78623 | 29118 ft | 527 kts | 125° |
| 2026-05-05 06:56 | 36.15665 | 131.86354 | 29110 ft | 528 kts | 125° |
| 2026-05-05 06:57 | 36.11798 | 131.94072 | 29111 ft | 528 kts | 125° |
| 2026-05-05 06:57 | 36.07919 | 132.01789 | 29115 ft | 528 kts | 126° |
| 2026-05-05 06:58 | 36.04032 | 132.09495 | 29119 ft | 529 kts | 126° |
| 2026-05-05 06:58 | 36.00135 | 132.17208 | 29120 ft | 529 kts | 126° |
| 2026-05-05 06:59 | 35.96235 | 132.24915 | 29124 ft | 529 kts | 126° |
| 2026-05-05 06:59 | 35.92328 | 132.32617 | 29119 ft | 530 kts | 126° |
| 2026-05-05 07:00 | 35.88414 | 132.40316 | 29123 ft | 530 kts | 126° |
| 2026-05-05 07:00 | 35.84519 | 132.47961 | 29126 ft | 530 kts | 126° |
| 2026-05-05 07:01 | 35.80591 | 132.55655 | 29121 ft | 530 kts | 126° |
| 2026-05-05 07:01 | 35.76658 | 132.63344 | 29127 ft | 531 kts | 126° |
| 2026-05-05 07:02 | 35.72727 | 132.71041 | 29124 ft | 531 kts | 126° |
| 2026-05-05 07:02 | 35.68812 | 132.78739 | 29127 ft | 532 kts | 126° |
| 2026-05-05 07:03 | 35.64874 | 132.86448 | 29109 ft | 532 kts | 126° |
| 2026-05-05 07:03 | 35.60935 | 132.94145 | 29113 ft | 532 kts | 127° |
| 2026-05-05 07:04 | 35.56986 | 133.01848 | 29118 ft | 533 kts | 127° |
| 2026-05-05 07:04 | 35.53022 | 133.09539 | 29131 ft | 533 kts | 128° |
| 2026-05-05 07:05 | 35.48738 | 133.16948 | 29130 ft | 532 kts | 131° |
| 2026-05-05 07:05 | 35.44360 | 133.24268 | 29127 ft | 532 kts | 131° |
| 2026-05-05 07:06 | 35.39991 | 133.31596 | 29132 ft | 533 kts | 131° |
| 2026-05-05 07:06 | 35.35636 | 133.38936 | 28773 ft | 532 kts | 131° |
| 2026-05-05 07:06 | 35.33465 | 133.42595 | 28526 ft | 532 kts | 131° |
| 2026-05-05 07:07 | 35.31296 | 133.46247 | 28391 ft | 529 kts | 131° |
| 2026-05-05 07:07 | 35.29134 | 133.49884 | 28275 ft | 527 kts | 131° |
| 2026-05-05 07:07 | 35.26977 | 133.53508 | 28110 ft | 526 kts | 131° |
| 2026-05-05 07:07 | 35.24820 | 133.57126 | 27925 ft | 526 kts | 131° |
| 2026-05-05 07:08 | 35.22668 | 133.60731 | 27765 ft | 525 kts | 131° |
| 2026-05-05 07:08 | 35.20546 | 133.64281 | 27645 ft | 523 kts | 131° |
| 2026-05-05 07:08 | 35.18382 | 133.67901 | 27585 ft | 519 kts | 131° |
| 2026-05-05 07:08 | 35.16279 | 133.71414 | 27490 ft | 518 kts | 131° |
| 2026-05-05 07:09 | 35.14156 | 133.74956 | 27366 ft | 516 kts | 131° |
| 2026-05-05 07:09 | 35.12028 | 133.78499 | 26952 ft | 518 kts | 131° |
| 2026-05-05 07:09 | 35.09906 | 133.82032 | 26495 ft | 514 kts | 131° |
| 2026-05-05 07:09 | 35.07802 | 133.85536 | 26046 ft | 508 kts | 131° |
| 2026-05-05 07:10 | 35.05727 | 133.88989 | 25602 ft | 502 kts | 131° |
| 2026-05-05 07:10 | 35.03664 | 133.92414 | 25174 ft | 497 kts | 131° |
| 2026-05-05 07:10 | 35.01627 | 133.95794 | 24744 ft | 492 kts | 131° |
| 2026-05-05 07:10 | 34.99609 | 133.99138 | 24340 ft | 488 kts | 130° |
| 2026-05-05 07:11 | 34.97536 | 134.02411 | 24155 ft | 488 kts | 137° |
| 2026-05-05 07:11 | 34.94966 | 134.05044 | 24150 ft | 479 kts | 154° |
| 2026-05-05 07:11 | 34.92007 | 134.06774 | 24151 ft | 465 kts | 167° |
| 2026-05-05 07:11 | 34.88911 | 134.07596 | 24138 ft | 448 kts | 180° |
| 2026-05-05 07:12 | 34.85792 | 134.07969 | 24151 ft | 453 kts | 179° |
| 2026-05-05 07:12 | 34.82643 | 134.08411 | 24146 ft | 458 kts | 178° |
| 2026-05-05 07:12 | 34.79470 | 134.08904 | 24144 ft | 460 kts | 178° |
| 2026-05-05 07:12 | 34.76316 | 134.09417 | 24140 ft | 455 kts | 178° |
| 2026-05-05 07:13 | 34.73181 | 134.09932 | 24132 ft | 453 kts | 178° |
| 2026-05-05 07:13 | 34.70060 | 134.10437 | 24141 ft | 453 kts | 178° |
| 2026-05-05 07:13 | 34.66943 | 134.10934 | 24142 ft | 452 kts | 178° |
| 2026-05-05 07:13 | 34.63815 | 134.11432 | 24066 ft | 455 kts | 178° |
| 2026-05-05 07:14 | 34.60658 | 134.11933 | 23681 ft | 458 kts | 178° |
| 2026-05-05 07:14 | 34.57529 | 134.12571 | 23206 ft | 457 kts | 168° |
| 2026-05-05 07:14 | 34.54643 | 134.14113 | 22779 ft | 464 kts | 151° |
| 2026-05-05 07:14 | 34.52143 | 134.16668 | 22357 ft | 464 kts | 139° |
| 2026-05-05 07:15 | 34.49855 | 134.19409 | 21978 ft | 461 kts | 139° |
| 2026-05-05 07:15 | 34.47590 | 134.22077 | 21574 ft | 459 kts | 140° |
| 2026-05-05 07:15 | 34.45515 | 134.24976 | 21118 ft | 459 kts | 123° |
| 2026-05-05 07:15 | 34.44330 | 134.28570 | 20727 ft | 463 kts | 103° |
| 2026-05-05 07:16 | 34.43999 | 134.32443 | 20215 ft | 467 kts | 90° |
| 2026-05-05 07:16 | 34.44345 | 134.36396 | 19060 ft | 477 kts | 78° |
| 2026-05-05 07:16 | 34.45113 | 134.40341 | 17952 ft | 485 kts | 76° |
| 2026-05-05 07:16 | 34.45947 | 134.44287 | 17386 ft | 478 kts | 76° |
| 2026-05-05 07:17 | 34.46762 | 134.48122 | 17311 ft | 460 kts | 76° |
| 2026-05-05 07:17 | 34.47525 | 134.51792 | 17441 ft | 439 kts | 77° |
| 2026-05-05 07:17 | 34.48243 | 134.55345 | 17039 ft | 433 kts | 77° |
| 2026-05-05 07:17 | 34.48950 | 134.58921 | 15909 ft | 442 kts | 78° |
| 2026-05-05 07:18 | 34.49671 | 134.62631 | 14553 ft | 459 kts | 78° |
| 2026-05-05 07:18 | 34.50401 | 134.66419 | 13707 ft | 461 kts | 78° |
| 2026-05-05 07:18 | 34.51119 | 134.70158 | 13351 ft | 448 kts | 78° |
| 2026-05-05 07:18 | 34.51811 | 134.73754 | 13369 ft | 428 kts | 78° |
| 2026-05-05 07:19 | 34.52473 | 134.77187 | 13499 ft | 407 kts | 79° |
| 2026-05-05 07:19 | 34.53105 | 134.80479 | 13247 ft | 398 kts | 79° |
| 2026-05-05 07:19 | 34.53731 | 134.83759 | 12313 ft | 399 kts | 78° |
| 2026-05-05 07:19 | 34.54354 | 134.87030 | 10714 ft | 399 kts | 78° |
| 2026-05-05 07:20 | 34.54984 | 134.90338 | 9042 ft | 403 kts | 78° |
| 2026-05-05 07:20 | 34.55607 | 134.93605 | 7875 ft | 392 kts | 78° |
| 2026-05-05 07:20 | 34.56206 | 134.96745 | 7142 ft | 371 kts | 78° |
| 2026-05-05 07:20 | 34.56770 | 134.99712 | 6566 ft | 352 kts | 78° |
| 2026-05-05 07:21 | 34.57315 | 135.02587 | 5314 ft | 351 kts | 78° |
| 2026-05-05 07:21 | 34.57871 | 135.05523 | 3563 ft | 363 kts | 78° |
| 2026-05-05 07:21 | 34.58436 | 135.08513 | 2232 ft | 361 kts | 78° |
| 2026-05-05 07:21 | 34.58969 | 135.11306 | 2485 ft | 326 kts | 78° |
| 2026-05-05 07:22 | 34.59458 | 135.13931 | 3209 ft | 304 kts | 78° |
| 2026-05-05 07:22 | 34.59938 | 135.16515 | 3570 ft | 328 kts | 79° |
| 2026-05-05 07:22 | 34.60433 | 135.19201 | 3793 ft | 340 kts | 78° |
| 2026-05-05 07:22 | 34.60772 | 135.21957 | 3836 ft | 327 kts | 90° |
| 2026-05-05 07:23 | 34.60710 | 135.24761 | 3930 ft | 338 kts | 94° |
| 2026-05-05 07:23 | 34.60576 | 135.27580 | 3913 ft | 327 kts | 94° |
| 2026-05-05 07:23 | 34.60486 | 135.30209 | 3822 ft | 298 kts | 93° |
| 2026-05-05 07:23 | 34.60426 | 135.32621 | 3608 ft | 275 kts | 92° |
| 2026-05-05 07:24 | 34.60302 | 135.34863 | 3121 ft | 261 kts | 104° |
| 2026-05-05 07:24 | 34.59466 | 135.36716 | 2759 ft | 243 kts | 135° |
| 2026-05-05 07:24 | 34.58131 | 135.37796 | 2627 ft | 222 kts | 155° |
| 2026-05-05 07:24 | 34.56655 | 135.38421 | 2673 ft | 229 kts | 170° |
| 2026-05-05 07:25 | 34.55041 | 135.38196 | 1986 ft | 245 kts | 208° |
| 2026-05-05 07:25 | 34.53675 | 135.37031 | 1782 ft | 230 kts | 210° |
| 2026-05-05 07:25 | 34.52316 | 135.36205 | 1860 ft | 206 kts | 206° |
| 2026-05-05 07:25 | 34.51060 | 135.35498 | 1713 ft | 192 kts | 204° |
| 2026-05-05 07:26 | 34.49877 | 135.34865 | 1542 ft | 183 kts | 210° |
| 2026-05-05 07:26 | 34.48993 | 135.33794 | 1412 ft | 182 kts | 234° |
| 2026-05-05 07:26 | 34.48205 | 135.32555 | 1260 ft | 188 kts | 231° |
| 2026-05-05 07:26 | 34.47397 | 135.31351 | 1163 ft | 181 kts | 231° |
| 2026-05-05 07:27 | 34.46630 | 135.30223 | 1084 ft | 163 kts | 231° |
| 2026-05-05 07:27 | 34.45953 | 135.29218 | 1048 ft | 148 kts | 231° |
| 2026-05-05 07:27 | 34.45281 | 135.28216 | 769 ft | 156 kts | 232° |
| 2026-05-05 07:27 | 34.44608 | 135.27203 | 477 ft | 152 kts | 232° |
| 2026-05-05 07:28 | 34.43954 | 135.26240 | 122 ft | 146 kts | 232° |
| 2026-05-05 07:28 | 34.43324 | 135.25281 | 32 ft | 139 kts | 231° |
| 2026-05-05 07:28 | 34.42819 | 135.24535 | 30 ft | 49 kts | 231° |
| 2026-05-05 07:28 | 34.42791 | 135.24485 | 26 ft | 0 kts | 240° |
| 2026-05-05 07:29 | 34.42787 | 135.24478 | 29 ft | 9 kts | 240° |
| 2026-05-05 07:29 | 34.42732 | 135.24306 | 26 ft | 33 kts | 256° |
| 2026-05-05 07:29 | 34.42693 | 135.23962 | 23 ft | 49 kts | 262° |
| 2026-05-05 07:29 | 34.42660 | 135.23667 | 18 ft | 58 kts | 262° |
| 2026-05-05 07:30 | 34.42664 | 135.23302 | 30 ft | 0 kts | 299° |